Terminal Aerodrome Forecast
Issued by NWS Wilmington, OH

Current Version | Previous Version | Graphics & Text | Print | Product List | Glossary On
Versions: 1 2 3 4 5 6 7 8 9 10 11 12 13 14 15 16 17
000
FTUS41 KILN 251800 AAA
TAFCMH
TAF AMD
KCMH 251833Z 2519/2618 08012KT P6SM -SHRA SCT025 OVC040
     FM260000 06013KT P6SM VCSH SCT025 OVC040
     FM260300 04013KT P6SM BKN040
     FM261300 01013KT P6SM FEW040=

USA.gov is the U.S. government's official web portal to all federal, state and local government web resources and services.